Time;durP1;ratioP1;P1;durP2;ratioP2;P2;SDS_P1;SDS_P2;PMS_P1;PMS_P2;Temp;Humidity;BMP_temperature;BMP_pressure;BME280_temperature;BME280_humidity;BME280_pressure;Samples;Min_cycle;Max_cycle;Signal;HPM_P1;HPM_P2
2022/09/23 00:01:13;;;;;;;3.75;3.15;;;;;;;8.71;100.00;99221.66;1761352;80;20915;-83
2022/09/23 00:03:41;;;;;;;6.12;3.83;;;;;;;8.72;100.00;99219.17;1760250;80;21049;-83
2022/09/23 00:06:10;;;;;;;4.30;3.70;;;;;;;8.72;100.00;99217.80;1762241;80;20970;-83
2022/09/23 00:08:37;;;;;;;4.47;3.70;;;;;;;8.70;100.00;99207.72;1756823;80;21025;-82
2022/09/23 00:11:09;;;;;;;4.17;2.62;;;;;;;8.68;100.00;99206.67;1754670;80;21140;-82
2022/09/23 00:13:36;;;;;;;4.05;3.17;;;;;;;8.69;100.00;99202.81;1772111;80;20907;-81
2022/09/23 00:16:12;;;;;;;7.35;3.72;;;;;;;8.69;100.00;99202.81;1778134;80;21060;-83
2022/09/23 00:18:40;;;;;;;4.90;3.83;;;;;;;8.68;100.00;99203.93;1756700;80;21525;-88
2022/09/23 00:21:10;;;;;;;5.15;3.50;;;;;;;8.67;100.00;99196.84;1746989;80;21101;-88
2022/09/23 00:23:37;;;;;;;4.35;3.22;;;;;;;8.68;100.00;99201.19;1751369;80;20951;-83
2022/09/23 00:26:05;;;;;;;5.58;4.03;;;;;;;8.67;100.00;99196.03;1766286;80;21096;-84
2022/09/23 00:28:33;;;;;;;6.10;3.77;;;;;;;8.64;100.00;99193.39;1748148;80;21060;-85
2022/09/23 00:31:10;;;;;;;4.15;3.30;;;;;;;8.64;100.00;99189.84;1774540;80;20951;-84
2022/09/23 00:33:37;;;;;;;6.25;3.22;;;;;;;8.62;100.00;99187.98;1762019;80;21282;-84
2022/09/23 00:36:06;;;;;;;6.55;3.85;;;;;;;8.59;100.00;99188.84;1746645;82;21445;-82
2022/09/23 00:38:33;;;;;;;4.75;3.00;;;;;;;8.57;100.00;99186.98;1725699;82;20942;-81
2022/09/23 00:40:59;;;;;;;4.28;3.50;;;;;;;8.58;100.00;99185.05;1725793;82;21001;-82
2022/09/23 00:43:46;;;;;;;4.03;2.98;;;;;;;8.58;100.00;99186.42;1736383;82;21004;-86
2022/09/23 00:46:30;;;;;;;5.03;3.55;;;;;;;8.56;100.00;99185.36;1732008;82;21232;-84
2022/09/23 00:49:16;;;;;;;5.35;3.90;;;;;;;8.56;100.00;99180.45;1727331;81;21548;-82
2022/09/23 00:51:50;;;;;;;7.15;3.83;;;;;;;8.55;100.00;99180.20;1724995;81;21071;-87
2022/09/23 00:54:17;;;;;;;5.12;3.47;;;;;;;8.52;100.00;99178.90;1721696;81;20900;-86
2022/09/23 00:56:43;;;;;;;5.83;3.55;;;;;;;8.50;100.00;99179.77;1720980;81;21018;-87
2022/09/23 00:59:10;;;;;;;4.20;3.22;;;;;;;8.50;100.00;99185.23;1723553;81;21844;-85
2022/09/23 01:01:37;;;;;;;5.42;4.00;;;;;;;8.51;100.00;99182.75;1735444;81;21048;-84
2022/09/23 01:04:03;;;;;;;4.22;2.92;;;;;;;8.49;100.00;99182.81;1733068;81;21591;-86
2022/09/23 01:06:30;;;;;;;5.97;3.72;;;;;;;8.47;100.00;99187.23;1734454;81;21128;-86
2022/09/23 01:08:58;;;;;;;5.95;4.25;;;;;;;8.47;100.00;99176.28;1735123;81;20949;-87
2022/09/23 01:11:54;;;;;;;4.80;3.37;;;;;;;8.45;100.00;99181.26;1718904;81;21536;-89
2022/09/23 01:14:30;;;;;;;5.75;4.05;;;;;;;8.45;100.00;99179.08;1731631;82;20974;-81
2022/09/23 01:17:12;;;;;;;6.17;3.42;;;;;;;8.44;100.00;99178.27;1708051;81;21062;-83
2022/09/23 01:20:32;;;;;;;5.00;3.37;;;;;;;8.43;100.00;99180.77;1723142;81;21030;-89
2022/09/23 01:23:24;;;;;;;6.20;2.85;;;;;;;8.44;100.00;99181.02;1724341;81;20962;-90
2022/09/23 01:26:45;;;;;;;4.72;3.37;;;;;;;8.46;100.00;99182.06;1734784;81;21073;-89
2022/09/23 01:29:45;;;;;;;5.60;2.98;;;;;;;8.52;100.00;99182.20;1732065;81;21081;-87
2022/09/23 01:32:46;;;;;;;3.77;3.05;;;;;;;8.50;100.00;99180.33;1702066;81;21060;-89
2022/09/23 01:35:29;;;;;;;3.95;3.00;;;;;;;8.48;100.00;99184.74;1723621;81;20986;-86
2022/09/23 01:38:18;;;;;;;;;;;;;;;8.49;100.00;99176.78;1753786;82;21142;-87
2022/09/23 01:41:02;;;;;;;3.33;2.58;;;;;;;8.49;100.00;99186.92;1741718;82;21150;-88
2022/09/23 01:43:46;;;;;;;5.33;3.20;;;;;;;8.48;100.00;99184.74;1727613;81;20954;-88
2022/09/23 01:46:26;;;;;;;5.40;3.30;;;;;;;8.49;100.00;99182.26;1730598;81;20965;-74
2022/09/23 01:49:05;;;;;;;3.25;2.65;;;;;;;8.49;100.00;99178.71;1716916;81;21553;-89
2022/09/23 01:51:36;;;;;;;3.47;2.83;;;;;;;8.47;100.00;99176.28;1730895;81;20991;-88
2022/09/23 01:54:23;;;;;;;6.10;3.05;;;;;;;8.47;100.00;99179.58;1727063;81;21755;-88
2022/09/23 01:56:58;;;;;;;4.47;2.98;;;;;;;8.47;100.00;99172.74;1718494;82;21026;-88
2022/09/23 01:59:41;;;;;;;5.47;2.90;;;;;;;8.46;100.00;99181.51;1726915;82;20930;-90
2022/09/23 02:02:18;;;;;;;4.17;2.67;;;;;;;8.46;100.00;99168.39;1720306;81;21553;-86
2022/09/23 02:04:56;;;;;;;3.52;2.70;;;;;;;8.48;100.00;99173.80;1722887;81;21045;-89
2022/09/23 02:07:43;;;;;;;5.75;3.10;;;;;;;8.45;100.00;99168.95;1732509;81;21085;-90
2022/09/23 02:10:40;;;;;;;4.47;3.10;;;;;;;8.44;100.00;99167.33;1723358;82;21002;-87
2022/09/23 02:13:14;;;;;;;5.60;3.50;;;;;;;8.45;100.00;99166.22;1731799;81;21077;-88
2022/09/23 02:15:45;;;;;;;4.37;3.10;;;;;;;8.43;100.00;99169.82;1724147;81;20965;-87
2022/09/23 02:18:21;;;;;;;4.33;3.10;;;;;;;8.43;100.00;99171.75;1730211;82;21563;-89
2022/09/23 02:20:50;;;;;;;7.08;3.47;;;;;;;8.42;100.00;99165.47;1723704;81;21163;-88
2022/09/23 02:23:24;;;;;;;6.65;3.65;;;;;;;8.45;100.00;99169.51;1719306;81;21021;-88
2022/09/23 02:26:33;;;;;;;3.37;2.37;;;;;;;8.46;100.00;99173.86;1724771;81;21061;-86
2022/09/23 02:29:20;;;;;;;7.22;3.40;;;;;;;8.44;100.00;99170.07;1736748;82;20922;-86
2022/09/23 02:32:11;;;;;;;7.80;3.35;;;;;;;8.45;100.00;99166.77;1704929;81;21096;-84
2022/09/23 02:34:51;;;;;;;6.50;2.98;;;;;;;8.45;100.00;99168.95;1737551;81;21552;-83
2022/09/23 02:37:46;;;;;;;4.90;3.00;;;;;;;8.43;100.00;99168.45;1741504;81;20939;-82
2022/09/23 02:40:39;;;;;;;5.25;3.22;;;;;;;8.43;100.00;99167.08;1733530;81;21156;-79
2022/09/23 02:43:23;;;;;;;8.10;3.47;;;;;;;8.45;100.00;99166.77;1725856;81;21528;-89
2022/09/23 02:45:50;;;;;;;7.92;3.85;;;;;;;8.44;100.00;99168.70;1727162;81;21188;-88
2022/09/23 02:48:24;;;;;;;6.28;3.15;;;;;;;8.44;100.00;99163.79;1741585;81;21102;-83
2022/09/23 02:50:52;;;;;;;6.15;3.55;;;;;;;8.46;100.00;99166.46;1720882;81;21505;-84
2022/09/23 02:53:18;;;;;;;3.62;2.62;;;;;;;8.45;100.00;99170.87;1732112;82;20986;-84
2022/09/23 02:55:45;;;;;;;4.62;2.85;;;;;;;8.44;100.00;99171.44;1727885;81;21671;-86
2022/09/23 02:58:12;;;;;;;5.62;3.60;;;;;;;8.44;100.00;99168.70;1723258;81;21124;-89
2022/09/23 03:01:00;;;;;;;6.12;3.72;;;;;;;8.48;100.00;99172.99;1719239;81;21093;-88
2022/09/23 03:03:46;;;;;;;5.00;3.65;;;;;;;8.50;100.00;99166.65;1739046;82;20919;-82
2022/09/23 03:06:46;;;;;;;6.62;3.35;;;;;;;8.47;100.00;99170.81;1726740;81;20997;-76
2022/09/23 03:09:21;;;;;;;5.35;3.33;;;;;;;8.46;100.00;99166.46;1745011;80;21045;-84
2022/09/23 03:11:59;;;;;;;7.03;4.40;;;;;;;8.45;100.00;99166.22;1750376;81;20916;-89
2022/09/23 03:14:43;;;;;;;6.33;3.20;;;;;;;8.44;100.00;99169.26;1746434;81;21871;-81
2022/09/23 03:17:37;;;;;;;8.18;3.72;;;;;;;8.46;100.00;99168.39;1708820;82;21028;-77
2022/09/23 03:20:15;;;;;;;5.42;3.27;;;;;;;8.45;100.00;99166.77;1741546;81;21019;-78
2022/09/23 03:22:50;;;;;;;6.25;3.25;;;;;;;8.43;100.00;99168.45;1742827;80;21069;-77
2022/09/23 03:25:23;;;;;;;5.37;3.17;;;;;;;8.45;100.00;99166.22;1743184;80;20977;-76
2022/09/23 03:27:52;;;;;;;6.47;3.80;;;;;;;8.45;100.00;99164.84;1753628;80;21109;-87
2022/09/23 03:30:20;;;;;;;5.53;3.62;;;;;;;8.44;100.00;99163.23;1760420;81;21006;-80
2022/09/23 03:32:51;;;;;;;8.43;4.05;;;;;;;8.44;100.00;99162.42;1756980;81;21012;-82
2022/09/23 03:35:25;;;;;;;4.78;3.80;;;;;;;8.43;100.00;99163.54;1747152;80;21009;-81
2022/09/23 03:38:06;;;;;;;9.68;4.08;;;;;;;8.41;100.00;99164.41;1717690;82;21384;-80
2022/09/23 03:40:42;;;;;;;7.47;4.75;;;;;;;8.41;100.00;99162.48;1702040;81;21249;-80
2022/09/23 03:43:15;;;;;;;6.40;4.35;;;;;;;8.43;100.00;99166.27;1711788;82;21411;-78
2022/09/23 03:45:43;;;;;;;5.85;3.98;;;;;;;8.41;100.00;99155.64;1725695;81;20892;-78
2022/09/23 03:48:13;;;;;;;10.72;4.53;;;;;;;8.40;100.00;99154.03;1703842;83;20940;-83
2022/09/23 03:50:47;;;;;;;5.10;3.60;;;;;;;8.41;100.00;99154.84;1713814;82;21566;-74
2022/09/23 03:53:20;;;;;;;5.17;3.87;;;;;;;8.40;100.00;99154.03;1719331;81;21117;-92
2022/09/23 03:55:50;;;;;;;5.17;3.52;;;;;;;8.37;100.00;99151.91;1712558;81;20935;-80
2022/09/23 03:58:20;;;;;;;5.42;4.00;;;;;;;8.34;100.00;99154.45;1706198;82;20888;-79
2022/09/23 04:00:53;;;;;;;9.90;4.22;;;;;;;8.34;100.00;99155.83;1715307;82;21443;-85
2022/09/23 04:03:23;;;;;;;7.65;4.15;;;;;;;8.31;100.00;99153.68;1718368;81;20931;-76
2022/09/23 04:05:54;;;;;;;6.95;3.87;;;;;;;8.27;100.00;99150.76;1711295;82;21101;-89
2022/09/23 04:08:24;;;;;;;6.47;3.80;;;;;;;8.24;100.00;99154.92;1714481;82;21462;-80
2022/09/23 04:10:56;;;;;;;7.47;4.08;;;;;;;8.25;100.00;99151.62;1712184;83;21443;-80
2022/09/23 04:13:32;;;;;;;4.35;3.58;;;;;;;8.26;100.00;99149.14;1707755;82;20984;-81
2022/09/23 04:16:03;;;;;;;6.13;4.47;;;;;;;8.24;100.00;99150.81;1713917;81;21017;-81
2022/09/23 04:18:30;;;;;;;5.10;4.00;;;;;;;8.23;100.00;99151.94;1716865;83;22109;-83
2022/09/23 04:21:01;;;;;;;5.80;3.70;;;;;;;8.24;100.00;99156.84;1708690;81;20912;-79
2022/09/23 04:23:28;;;;;;;9.28;3.92;;;;;;;8.25;100.00;99155.73;1714055;81;20967;-79
2022/09/23 04:25:58;;;;;;;8.80;4.40;;;;;;;8.27;100.00;99159.77;1695912;82;21043;-77
2022/09/23 04:28:26;;;;;;;5.53;4.15;;;;;;;8.27;100.00;99153.49;1675322;84;20960;-75
2022/09/23 04:30:56;;;;;;;5.85;4.50;;;;;;;8.28;100.00;99153.18;1688458;83;21127;-75
2022/09/23 04:33:24;;;;;;;7.85;4.30;;;;;;;8.29;100.00;99156.16;1677401;84;20943;-73
2022/09/23 04:35:54;;;;;;;4.97;4.00;;;;;;;8.30;100.00;99152.88;1679126;84;21022;-80
2022/09/23 04:38:23;;;;;;;6.62;4.12;;;;;;;8.33;100.00;99154.20;1671679;84;20939;-72
2022/09/23 04:40:57;;;;;;;4.97;3.75;;;;;;;8.35;100.00;99151.41;1677637;84;21013;-77
2022/09/23 04:43:25;;;;;;;11.12;6.67;;;;;;;8.37;100.00;99155.20;1700589;84;21890;-79
2022/09/23 04:46:05;;;;;;;7.00;4.50;;;;;;;8.39;100.00;99158.44;1691906;84;21047;-80
2022/09/23 04:48:38;;;;;;;7.87;3.75;;;;;;;8.40;100.00;99151.30;1671886;84;20932;-78
2022/09/23 04:51:15;;;;;;;5.55;3.85;;;;;;;8.41;100.00;99158.94;1681279;84;20983;-76
2022/09/23 04:53:48;;;;;;;6.20;4.50;;;;;;;8.42;100.00;99158.62;1690299;83;20987;-75
2022/09/23 04:56:28;;;;;;;6.65;3.80;;;;;;;8.43;100.00;99159.44;1674113;84;21249;-79
2022/09/23 04:58:59;;;;;;;5.00;3.52;;;;;;;8.43;100.00;99156.70;1693547;83;21016;-77
2022/09/23 05:01:33;;;;;;;6.75;4.58;;;;;;;8.43;100.00;99162.17;1674034;84;20964;-77
2022/09/23 05:04:04;;;;;;;6.25;3.70;;;;;;;8.45;100.00;99163.48;1682957;83;21014;-83
2022/09/23 05:06:35;;;;;;;4.97;3.30;;;;;;;8.47;100.00;99163.98;1693152;84;20899;-77
2022/09/23 05:09:06;;;;;;;6.03;3.70;;;;;;;8.49;100.00;99165.84;1672378;84;21122;-75
2022/09/23 05:11:35;;;;;;;6.62;3.77;;;;;;;8.53;100.00;99165.47;1679427;84;20940;-77
2022/09/23 05:14:03;;;;;;;6.25;3.77;;;;;;;8.57;100.00;99163.73;1686686;82;20951;-77
2022/09/23 05:16:34;;;;;;;6.33;3.58;;;;;;;8.57;100.00;99160.98;1726106;81;20970;-81
2022/09/23 05:19:05;;;;;;;4.65;3.42;;;;;;;8.57;100.00;99162.36;1684005;84;21430;-73
2022/09/23 05:21:37;;;;;;;4.22;2.90;;;;;;;8.56;100.00;99156.64;1725911;80;21363;-76
2022/09/23 05:24:08;;;;;;;4.45;3.33;;;;;;;8.57;100.00;99160.98;1752726;80;20990;-77
2022/09/23 05:26:47;;;;;;;4.85;3.70;;;;;;;8.58;100.00;99157.14;1726332;80;21006;-75
2022/09/23 05:29:19;;;;;;;7.87;3.58;;;;;;;8.61;100.00;99163.91;1743612;80;21005;-79
2022/09/23 05:31:52;;;;;;;5.08;3.20;;;;;;;8.65;100.00;99161.36;1730733;80;21025;-86
2022/09/23 05:34:19;;;;;;;;;;;;;;;8.68;100.00;99162.88;1765574;81;21227;-74
2022/09/23 05:36:51;;;;;;;13.28;4.10;;;;;;;8.70;100.00;99160.64;1758398;80;20109;-74
2022/09/23 05:39:21;;;;;;;8.38;3.87;;;;;;;8.73;100.00;99164.69;1744487;80;21007;-77
2022/09/23 05:41:54;;;;;;;6.83;3.50;;;;;;;8.75;100.00;99163.25;1726684;81;20915;-81
2022/09/23 05:44:24;;;;;;;5.28;3.60;;;;;;;8.74;100.00;99168.48;1759186;79;20980;-84
2022/09/23 05:46:54;;;;;;;6.37;3.50;;;;;;;8.73;100.00;99169.59;1760440;80;21876;-87
2022/09/23 05:49:25;;;;;;;5.05;3.52;;;;;;;8.74;100.00;99172.58;1752301;80;21520;-94
2022/09/23 05:51:59;;;;;;;8.95;3.10;;;;;;;8.75;100.00;99171.46;1728316;81;21046;-80
2022/09/23 05:54:31;;;;;;;4.28;3.00;;;;;;;8.77;100.00;99173.89;1749369;80;21062;-90
2022/09/23 05:57:02;;;;;;;8.63;3.60;;;;;;;8.80;100.00;99174.62;1690431;84;20955;-85
2022/09/23 05:59:32;;;;;;;6.15;3.33;;;;;;;8.77;100.00;99172.52;1688570;84;21853;-77
2022/09/23 06:02:04;;;;;;;8.37;3.50;;;;;;;8.73;100.00;99177.80;1718347;80;21422;-77
2022/09/23 06:04:37;;;;;;;4.25;3.05;;;;;;;8.74;100.00;99175.31;1725032;80;21607;-77
2022/09/23 06:07:06;;;;;;;11.10;3.08;;;;;;;8.76;100.00;99173.64;1710170;82;20971;-77
2022/09/23 06:09:35;;;;;;;4.35;3.00;;;;;;;8.75;100.00;99178.86;1720827;81;20978;-74
2022/09/23 06:12:07;;;;;;;3.50;2.95;;;;;;;8.75;100.00;99173.39;1711283;82;21601;-73
2022/09/23 06:14:39;;;;;;;5.28;3.33;;;;;;;8.77;100.00;99176.63;1718477;81;20931;-79
2022/09/23 06:17:11;;;;;;;4.75;3.40;;;;;;;8.78;100.00;99179.05;1734342;81;21074;-86
2022/09/23 06:19:39;;;;;;;5.35;4.58;;;;;;;8.78;100.00;99176.88;1708495;81;20944;-82
2022/09/23 06:22:10;;;;;;;9.10;5.62;;;;;;;8.76;100.00;99176.38;1691128;82;20968;-83
2022/09/23 06:24:40;;;;;;;6.80;5.87;;;;;;;8.78;100.00;99182.34;1751534;80;21955;-75
2022/09/23 06:27:08;;;;;;;7.78;3.98;;;;;;;8.80;100.00;99186.95;1739511;80;21045;-76
2022/09/23 06:29:35;;;;;;;7.10;4.45;;;;;;;8.82;100.00;99185.52;1730939;80;21109;-75
2022/09/23 06:32:06;;;;;;;6.92;5.03;;;;;;;8.87;100.00;99194.97;1754116;80;21043;-79
2022/09/23 06:34:36;;;;;;;6.42;4.15;;;;;;;8.89;100.00;99194.09;1750131;80;21529;-77
2022/09/23 06:37:04;;;;;;;10.90;6.30;;;;;;;8.90;100.00;99194.90;1757327;80;21033;-76
2022/09/23 06:39:35;;;;;;;12.55;6.33;;;;;;;8.89;100.00;99192.72;1726998;80;21080;-83
2022/09/23 06:42:12;;;;;;;14.85;7.87;;;;;;;8.89;100.00;99192.72;1762225;80;21703;-89
2022/09/23 06:44:44;;;;;;;15.43;7.42;;;;;;;8.92;100.00;99196.77;1720833;80;20994;-85
2022/09/23 06:47:14;;;;;;;15.80;7.05;;;;;;;8.94;100.00;99195.33;1744551;80;20895;-88
2022/09/23 06:49:44;;;;;;;31.45;10.90;;;;;;;8.99;100.00;99191.66;1735782;81;20855;-89
2022/09/23 06:52:13;;;;;;;29.18;8.78;;;;;;;9.06;100.00;99193.95;1758860;80;20883;-84
2022/09/23 06:54:47;;;;;;;24.23;6.90;;;;;;;9.11;100.00;99193.25;1754434;80;21588;-78
2022/09/23 06:57:14;;;;;;;14.03;4.92;;;;;;;9.12;100.00;99191.32;1745115;80;21016;-82
2022/09/23 06:59:43;;;;;;;6.75;3.92;;;;;;;9.12;100.00;99192.13;1750565;80;21600;-79
2022/09/23 07:02:12;;;;;;;7.65;4.47;;;;;;;9.14;100.00;99191.81;1750212;80;21101;-78
2022/09/23 07:04:41;;;;;;;9.13;3.80;;;;;;;9.13;100.00;99195.11;1740831;80;20994;-78
2022/09/23 07:07:13;;;;;;;4.55;3.27;;;;;;;9.12;100.00;99188.02;1760830;80;20986;-80
2022/09/23 07:09:39;;;;;;;4.15;2.98;;;;;;;9.14;100.00;99191.81;1749145;80;21206;-84
2022/09/23 07:12:08;;;;;;;6.72;3.67;;;;;;;9.15;100.00;99190.12;1754130;80;21041;-83
2022/09/23 07:14:39;;;;;;;7.22;3.77;;;;;;;9.18;100.00;99189.50;1730450;82;21538;-89
2022/09/23 07:17:06;;;;;;;5.22;4.12;;;;;;;9.22;100.00;99191.05;1748028;81;20907;-78
2022/09/23 07:19:35;;;;;;;6.10;4.17;;;;;;;9.20;100.00;99186.45;1735878;81;21760;-87
2022/09/23 07:22:00;;;;;;;8.00;3.58;;;;;;;9.19;100.00;99190.31;1713243;83;20971;-78
2022/09/23 07:24:29;;;;;;;4.65;3.47;;;;;;;9.18;100.00;99185.95;1703786;82;20987;-76
2022/09/23 07:27:01;;;;;;;4.08;2.87;;;;;;;9.20;100.00;99185.08;1686671;84;21155;-78
2022/09/23 07:29:32;;;;;;;3.35;2.50;;;;;;;9.25;100.00;99180.24;1699345;83;20978;-77
2022/09/23 07:32:08;;;;;;;3.20;2.17;;;;;;;9.34;100.00;99183.02;1690753;83;21106;-77
2022/09/23 07:34:33;;;;;;;;;;;;;;;9.44;100.00;99176.45;1666785;83;21003;-78
2022/09/23 07:37:01;;;;;;;2.42;1.80;;;;;;;9.49;100.00;99180.42;1690516;83;20161;-83
2022/09/23 07:39:33;;;;;;;4.30;2.00;;;;;;;9.51;100.00;99178.17;1689590;83;21482;-73
2022/09/23 07:42:04;;;;;;;2.23;2.03;;;;;;;9.53;100.00;99180.84;1676198;84;20849;-76
2022/09/23 07:44:31;;;;;;;2.87;2.05;;;;;;;9.60;100.00;99179.01;1685931;83;20911;-75
2022/09/23 07:47:01;;;;;;;4.55;2.27;;;;;;;9.67;100.00;99174.43;1693692;83;20951;-76
2022/09/23 07:49:32;;;;;;;6.10;2.45;;;;;;;9.68;100.00;99174.67;1681308;84;21399;-72
2022/09/23 07:52:08;;;;;;;2.83;2.00;;;;;;;9.66;100.00;99173.62;1665192;84;20947;-73
2022/09/23 07:54:36;;;;;;;7.40;2.95;;;;;;;9.64;100.00;99173.13;1681096;83;20956;-72
2022/09/23 07:57:04;;;;;;;5.28;1.98;;;;;;;9.55;100.00;99174.48;1688751;84;20970;-75
2022/09/23 07:59:34;;;;;;;3.87;1.92;;;;;;;9.47;100.00;99173.08;1700338;82;20947;-74
2022/09/23 08:02:05;;;;;;;4.40;1.87;;;;;;;9.41;100.00;99168.30;1701230;83;21503;-74
2022/09/23 08:04:34;;;;;;;2.08;1.60;;;;;;;9.38;100.00;99166.76;1685615;81;22298;-74
2022/09/23 08:07:07;;;;;;;2.85;1.77;;;;;;;9.34;100.00;99164.41;1713073;81;21487;-75
2022/09/23 08:09:40;;;;;;;4.47;1.80;;;;;;;9.32;100.00;99164.72;1703502;83;20915;-83
2022/09/23 08:12:08;;;;;;;2.22;1.52;;;;;;;9.36;100.00;99169.00;1695692;82;20875;-82
2022/09/23 08:14:40;;;;;;;5.42;2.02;;;;;;;9.43;100.00;99166.05;1699407;83;21486;-83
2022/09/23 08:17:12;;;;;;;2.47;1.55;;;;;;;9.51;100.00;99165.84;1679304;83;21110;-81
2022/09/23 08:19:39;;;;;;;3.80;1.55;;;;;;;9.58;100.00;99164.25;1686600;83;20907;-84
2022/09/23 08:22:07;;;;;;;2.83;1.65;;;;;;;9.63;100.00;99163.30;1693348;83;20987;-83
2022/09/23 08:24:38;;;;;;;2.87;1.90;;;;;;;9.71;100.00;99161.70;1682386;84;20919;-76
2022/09/23 08:27:05;;;;;;;2.47;1.50;;;;;;;9.78;100.00;99156.56;1686485;83;21063;-79
2022/09/23 08:29:36;;;;;;;2.98;1.90;;;;;;;9.88;100.00;99153.48;1675219;85;21538;-82
2022/09/23 08:32:07;;;;;;;3.30;1.80;;;;;;;9.99;100.00;99150.67;1681104;83;21616;-78
2022/09/23 08:34:41;;;;;;;2.45;1.90;;;;;;;10.09;100.00;99147.63;1682167;84;21025;-90
2022/09/23 08:37:10;;;;;;;;;;;;;;;10.31;100.00;99150.00;1696362;82;20977;-75
2022/09/23 08:39:41;;;;;;;2.90;1.50;;;;;;;10.50;100.00;99148.50;1686088;84;20100;-78
2022/09/23 08:42:19;;;;;;;3.42;1.95;;;;;;;10.69;100.00;99139.11;1694935;82;21175;-76
2022/09/23 08:44:55;;;;;;;7.03;2.22;;;;;;;10.89;100.00;99142.55;1759725;80;21085;-77
2022/09/23 08:47:44;;;;;;;3.17;1.80;;;;;;;11.06;100.00;99139.72;1728114;81;21019;-75
2022/09/23 08:50:21;;;;;;;2.75;1.75;;;;;;;11.22;100.00;99136.66;1753729;80;21045;-75
2022/09/23 08:53:06;;;;;;;1.65;1.42;;;;;;;11.31;100.00;99136.62;1722017;80;21025;-77
2022/09/23 08:55:39;;;;;;;1.70;1.27;;;;;;;11.35;100.00;99140.33;1728311;81;21760;-77
2022/09/23 08:58:54;;;;;;;1.82;1.30;;;;;;;11.42;100.00;99140.62;1754588;80;21076;-76
2022/09/23 09:01:43;;;;;;;1.52;1.00;;;;;;;11.41;100.00;99140.95;1732875;80;20907;-77
2022/09/23 09:04:28;;;;;;;3.17;1.27;;;;;;;11.39;100.00;99133.03;1758438;80;21513;-76
2022/09/23 09:07:12;;;;;;;3.33;1.30;;;;;;;11.41;100.00;99133.52;1752382;80;20990;-74
2022/09/23 09:10:07;;;;;;;2.33;1.40;;;;;;;11.38;100.00;99139.67;1744375;80;21079;-80
2022/09/23 09:13:06;;;;;;;2.27;1.22;;;;;;;11.34;100.00;99136.54;1748319;80;21065;-78
2022/09/23 09:15:46;;;;;;;2.35;0.90;;;;;;;11.30;100.00;99132.84;1760639;79;20943;-72
2022/09/23 09:18:22;;;;;;;5.35;1.12;;;;;;;11.36;100.00;99123.27;1751473;80;21133;-84
2022/09/23 09:21:09;;;;;;;1.65;0.90;;;;;;;11.37;100.00;99127.63;1743445;80;21569;-80
2022/09/23 09:23:54;;;;;;;5.83;1.77;;;;;;;11.35;100.00;99125.78;1738981;81;21582;-89
2022/09/23 09:26:31;;;;;;;1.15;0.62;;;;;;;11.24;100.00;99123.41;1728585;81;21203;-80
2022/09/23 09:29:12;;;;;;;0.62;0.40;;;;;;;11.06;100.00;99120.48;1723038;81;20925;-82
2022/09/23 09:31:44;;;;;;;0.45;0.45;;;;;;;10.98;100.00;99128.76;1727576;81;20892;-82
2022/09/23 09:34:40;;;;;;;1.20;0.70;;;;;;;10.87;100.00;99128.34;1697808;81;21462;-73
2022/09/23 09:37:37;;;;;;;0.57;0.50;;;;;;;10.81;100.00;99126.33;1695215;82;20902;-76
2022/09/23 09:40:10;;;;;;;3.65;0.78;;;;;;;10.76;100.00;99121.58;1723728;82;21058;-90
2022/09/23 09:42:39;;;;;;;1.05;0.80;;;;;;;10.74;100.00;99121.91;1720673;82;21600;-79
2022/09/23 09:45:33;;;;;;;2.58;0.93;;;;;;;10.78;100.00;99120.12;1725054;82;21579;-79
2022/09/23 09:48:19;;;;;;;0.90;0.80;;;;;;;10.85;100.00;99118.24;1697014;81;21021;-79
2022/09/23 09:50:51;;;;;;;1.50;0.78;;;;;;;10.90;100.00;99111.20;1726175;82;21265;-83
2022/09/23 09:53:25;;;;;;;2.12;0.88;;;;;;;11.05;100.00;99112.01;1687000;83;20970;-80
2022/09/23 09:56:02;;;;;;;2.80;0.50;;;;;;;11.33;100.00;99104.70;1712818;81;20904;-83
2022/09/23 09:58:47;;;;;;;1.15;0.68;;;;;;;11.70;100.00;99109.30;1716456;82;20920;-88
2022/09/23 10:01:31;;;;;;;1.32;0.90;;;;;;;12.07;100.00;99108.19;1725799;82;20935;-78
2022/09/23 10:04:12;;;;;;;1.37;0.70;;;;;;;12.38;100.00;99103.61;1723275;82;21883;-78
2022/09/23 10:06:44;;;;;;;0.80;0.60;;;;;;;12.45;100.00;99101.91;1706770;82;21043;-79
2022/09/23 10:09:18;;;;;;;0.93;0.65;;;;;;;12.42;100.00;99102.59;1696331;81;21006;-75
2022/09/23 10:12:20;;;;;;;4.47;2.92;;;;;;;12.63;100.00;99098.98;1708328;81;20990;-76
2022/09/23 10:14:56;;;;;;;1.37;0.93;;;;;;;13.20;100.00;99104.50;1719640;82;20983;-76
2022/09/23 10:17:31;;;;;;;1.85;0.75;;;;;;;13.79;100.00;99103.41;1719511;82;21288;-90
2022/09/23 10:20:00;;;;;;;1.57;0.80;;;;;;;13.78;100.00;99105.14;1716615;82;20888;-85
2022/09/23 10:22:33;;;;;;;3.12;0.68;;;;;;;13.48;97.94;99108.72;1703802;84;21510;-72
2022/09/23 10:25:04;;;;;;;1.10;0.70;;;;;;;13.12;97.52;99110.31;1698665;82;20872;-81
2022/09/23 10:27:34;;;;;;;2.17;0.82;;;;;;;12.77;98.00;99114.03;1691642;82;20890;-77
2022/09/23 10:30:06;;;;;;;0.88;0.78;;;;;;;12.53;99.51;99107.91;1704152;83;21834;-81
2022/09/23 10:32:39;;;;;;;1.50;0.70;;;;;;;12.33;100.00;99109.31;1715476;81;21137;-82
2022/09/23 10:35:22;;;;;;;3.87;0.65;;;;;;;12.18;100.00;99110.73;1705106;84;21642;-74
2022/09/23 10:37:59;;;;;;;1.40;0.80;;;;;;;12.04;100.00;99112.98;1713988;82;21439;-71
2022/09/23 10:49:24;;;;;;;;;;;;;;;11.59;100.00;99119.08;1718739;82;20897;-71
2022/09/23 10:52:34;;;;;;;2.37;1.22;;;;;;;11.47;100.00;99116.27;1723418;83;20200;-70
2022/09/23 10:55:23;;;;;;;2.77;1.60;;;;;;;11.34;100.00;99120.05;1700604;81;21006;-78
2022/09/23 10:58:19;;;;;;;1.60;1.17;;;;;;;11.28;100.00;99115.31;1750903;80;21673;-82
2022/09/23 11:01:33;;;;;;;2.40;1.35;;;;;;;11.18;100.00;99120.60;1757578;81;21001;-82
2022/09/23 11:04:30;;;;;;;8.10;1.40;;;;;;;11.05;100.00;99121.62;1699109;81;33750;-77
2022/09/23 11:07:08;;;;;;;1.77;1.25;;;;;;;10.90;100.00;99124.37;1726629;81;20966;-78
2022/09/23 11:10:20;;;;;;;8.28;2.02;;;;;;;10.78;100.00;99122.86;1713031;81;21510;-85
2022/09/23 11:13:08;;;;;;;4.40;1.75;;;;;;;10.79;100.00;99122.30;1697168;82;21274;-79
2022/09/23 11:15:51;;;;;;;4.72;2.10;;;;;;;10.75;100.00;99121.34;1713233;82;20971;-78
2022/09/23 11:18:50;;;;;;;5.80;2.33;;;;;;;10.68;100.00;99121.84;1721529;81;20917;-73
2022/09/23 11:21:54;;;;;;;4.50;2.08;;;;;;;10.69;100.00;99116.59;1735764;81;20904;-73
2022/09/23 11:24:57;;;;;;;3.37;2.10;;;;;;;10.75;100.00;99115.84;1715953;82;20992;-73
2022/09/23 11:27:41;;;;;;;5.60;2.92;;;;;;;10.82;100.00;99115.59;1723458;81;21144;-74
2022/09/23 11:30:18;;;;;;;2.25;1.87;;;;;;;10.88;100.00;99114.84;1712508;81;20980;-71
2022/09/23 11:33:06;;;;;;;2.98;2.00;;;;;;;10.96;100.00;99111.27;1705131;82;20983;-73
2022/09/23 11:35:40;;;;;;;4.67;1.82;;;;;;;11.09;100.00;99112.16;1707762;82;21584;-75
2022/09/23 11:38:29;;;;;;;5.12;2.27;;;;;;;11.24;100.00;99113.79;1710201;82;20935;-74
2022/09/23 11:40:59;;;;;;;2.35;1.90;;;;;;;11.36;100.00;99110.91;1693737;84;21151;-75
2022/09/23 11:43:33;;;;;;;2.30;1.87;;;;;;;11.42;100.00;99110.39;1750521;80;21505;-72
2022/09/23 11:46:21;;;;;;;3.37;2.35;;;;;;;11.46;100.00;99109.16;1745987;81;20990;-71
2022/09/23 11:49:11;;;;;;;5.90;2.92;;;;;;;11.51;100.00;99108.97;1739315;80;20938;-72
2022/09/23 11:51:50;;;;;;;4.70;2.30;;;;;;;11.56;100.00;99104.63;1740255;82;20967;-72
2022/09/23 11:54:25;;;;;;;2.90;1.98;;;;;;;11.62;100.00;99100.54;1720821;82;21151;-72
2022/09/23 11:56:53;;;;;;;3.35;2.17;;;;;;;11.65;100.00;99099.88;1719463;82;20930;-72
2022/09/23 11:59:30;;;;;;;4.22;2.42;;;;;;;11.69;100.00;99101.39;1693755;83;20914;-72
2022/09/23 12:02:04;;;;;;;3.08;1.90;;;;;;;11.66;100.00;99100.68;1720085;82;21045;-73
2022/09/23 12:04:34;;;;;;;4.55;2.17;;;;;;;11.58;100.00;99103.16;1723160;82;20990;-86
2022/09/23 12:07:12;;;;;;;2.87;2.30;;;;;;;11.43;100.00;99098.83;1722013;82;21240;-79
2022/09/23 12:10:04;;;;;;;3.83;2.60;;;;;;;11.31;100.00;99100.10;1725314;82;20989;-74
2022/09/23 12:12:59;;;;;;;3.98;2.58;;;;;;;11.20;100.00;99096.35;1732583;82;21124;-85
2022/09/23 12:15:51;;;;;;;2.22;1.98;;;;;;;11.13;100.00;99096.06;1719328;82;21070;-88
2022/09/23 12:18:50;;;;;;;3.60;2.35;;;;;;;11.06;100.00;99096.33;1720886;82;21010;-83
2022/09/23 12:21:52;;;;;;;2.52;2.00;;;;;;;11.04;100.00;99099.98;1729974;81;21136;-86
2022/09/23 12:24:45;;;;;;;2.90;2.30;;;;;;;11.03;100.00;99098.36;1728691;82;20998;-87